Time;durP1;ratioP1;P1;durP2;ratioP2;P2;SDS_P1;SDS_P2;PMS_P1;PMS_P2;Temp;Humidity;BMP_temperature;BMP_pressure;BME280_temperature;BME280_humidity;BME280_pressure;Samples;Min_cycle;Max_cycle;Signal;HPM_P1;HPM_P2
2021/10/10 00:00:01;;;;;;;10.60;7.38;;;;;;;5.66;93.43;97118.72;6371980;46;20105;-74
2021/10/10 00:05:04;;;;;;;9.02;6.30;;;;;;;5.64;93.95;97121.09;6372794;46;20092;-74
2021/10/10 00:10:09;;;;;;;12.40;7.30;;;;;;;5.65;93.36;97109.72;6372145;46;20083;-74
2021/10/10 00:15:13;;;;;;;7.57;6.22;;;;;;;5.55;93.03;97115.34;6373161;46;20637;-75
2021/10/10 00:20:15;;;;;;;12.40;7.22;;;;;;;5.54;93.13;97106.31;6373500;46;20087;-74
2021/10/10 00:25:18;;;;;;;16.00;6.78;;;;;;;5.49;93.23;97095.84;6373525;46;20088;-74
2021/10/10 00:30:22;;;;;;;7.95;6.07;;;;;;;5.35;92.10;97095.22;6379092;46;20084;-73
2021/10/10 00:35:24;;;;;;;9.93;6.03;;;;;;;5.17;91.93;97094.63;6382601;46;20087;-73
2021/10/10 00:40:28;;;;;;;7.97;5.45;;;;;;;5.13;91.53;97097.41;6382081;46;20088;-73
2021/10/10 00:45:30;;;;;;;5.90;4.85;;;;;;;4.96;91.23;97096.41;6376837;46;20184;-74
2021/10/10 00:50:33;;;;;;;7.15;4.55;;;;;;;4.79;91.59;97091.91;6373705;46;20093;-74
2021/10/10 00:55:35;;;;;;;9.70;6.75;;;;;;;4.77;92.57;97096.97;6373495;46;20092;-74
2021/10/10 01:00:38;;;;;;;9.77;5.95;;;;;;;4.83;92.65;97100.06;6373610;46;20110;-74
2021/10/10 01:05:41;;;;;;;7.05;5.60;;;;;;;4.92;91.78;97097.63;6373391;46;20105;-74
2021/10/10 01:10:44;;;;;;;11.82;6.38;;;;;;;4.79;92.46;97096.59;6373387;46;20128;-74
2021/10/10 01:15:48;;;;;;;11.00;6.13;;;;;;;4.72;92.00;97097.44;6373296;46;20096;-74
2021/10/10 01:20:54;;;;;;;7.72;6.28;;;;;;;4.64;91.88;97097.88;6373215;46;20096;-73
2021/10/10 01:25:57;;;;;;;12.23;5.63;;;;;;;4.68;91.43;97084.97;6373297;46;20100;-74
2021/10/10 01:30:59;;;;;;;7.88;5.30;;;;;;;4.67;91.61;97094.34;6373178;46;20531;-75
2021/10/10 01:36:02;;;;;;;9.13;5.70;;;;;;;4.68;90.97;97090.44;6372915;46;20092;-75
2021/10/10 01:41:04;;;;;;;9.93;5.70;;;;;;;4.56;91.20;97088.19;6359845;46;20097;-73
2021/10/10 01:46:07;;;;;;;8.85;5.40;;;;;;;4.48;91.66;97081.22;6373088;46;20110;-73
2021/10/10 01:51:12;;;;;;;8.52;6.03;;;;;;;4.51;91.69;97077.66;6373816;46;20185;-73
2021/10/10 01:56:16;;;;;;;10.27;5.63;;;;;;;4.51;91.67;97078.44;6373274;46;20146;-73
2021/10/10 02:01:19;;;;;;;9.63;6.07;;;;;;;4.42;91.51;97069.13;6373330;46;20093;-72
2021/10/10 02:06:26;;;;;;;8.45;5.40;;;;;;;4.29;92.47;97066.91;6375551;46;20096;-73
2021/10/10 02:11:28;;;;;;;5.75;4.57;;;;;;;4.32;92.69;97073.50;6403625;46;20172;-73
2021/10/10 02:16:31;;;;;;;10.25;4.78;;;;;;;4.20;92.04;97072.06;6384923;46;20183;-74
2021/10/10 02:21:33;;;;;;;11.55;6.20;;;;;;;4.15;92.57;97069.75;6360698;46;20097;-73
2021/10/10 02:26:37;;;;;;;5.45;4.82;;;;;;;4.15;92.48;97061.53;6373103;46;20265;-73
2021/10/10 02:31:42;;;;;;;7.63;5.07;;;;;;;4.15;91.88;97067.00;6373405;46;20087;-74
2021/10/10 02:36:46;;;;;;;18.02;6.25;;;;;;;4.06;92.09;97063.94;6374283;46;20087;-73
2021/10/10 02:41:48;;;;;;;7.80;5.75;;;;;;;3.99;92.78;97065.94;6372782;46;20538;-75
2021/10/10 02:46:50;;;;;;;10.25;6.28;;;;;;;4.15;93.51;97064.28;6372761;46;20536;-73
2021/10/10 02:51:53;;;;;;;7.13;5.60;;;;;;;4.21;92.74;97059.13;6376449;46;20122;-73
2021/10/10 02:56:55;;;;;;;8.63;5.32;;;;;;;4.18;92.55;97057.97;6373268;46;20092;-74
2021/10/10 03:01:57;;;;;;;9.10;5.38;;;;;;;4.14;91.88;97061.94;6373248;46;20096;-73
2021/10/10 03:07:00;;;;;;;10.55;5.68;;;;;;;4.17;92.50;97064.66;6373226;46;20689;-73
2021/10/10 03:12:03;;;;;;;6.55;5.57;;;;;;;4.10;92.94;97052.97;6372888;46;20544;-73
2021/10/10 03:17:05;;;;;;;6.72;5.10;;;;;;;4.14;91.87;97048.25;6372742;46;20096;-73
2021/10/10 03:22:08;;;;;;;9.43;6.22;;;;;;;4.03;91.40;97050.28;6359935;46;20629;-74
2021/10/10 03:27:10;;;;;;;11.60;6.50;;;;;;;3.90;91.52;97047.25;6372438;46;20088;-74
2021/10/10 03:32:12;;;;;;;11.32;6.63;;;;;;;3.75;91.69;97043.06;6372415;46;20097;-74
2021/10/10 03:37:15;;;;;;;9.63;6.18;;;;;;;3.77;91.36;97043.44;6372519;46;20092;-74
2021/10/10 03:42:17;;;;;;;8.10;6.10;;;;;;;3.73;91.62;97039.97;6372237;46;20557;-74
2021/10/10 03:47:20;;;;;;;7.43;5.93;;;;;;;3.55;92.03;97044.75;6372257;46;20527;-73
2021/10/10 03:52:22;;;;;;;12.25;6.00;;;;;;;3.46;92.83;97041.69;6376149;46;20087;-72
2021/10/10 03:57:25;;;;;;;8.98;6.13;;;;;;;3.51;92.75;97036.56;6376896;46;20101;-73
2021/10/10 04:02:28;;;;;;;8.75;5.78;;;;;;;3.54;92.48;97034.97;6372647;46;20110;-71
2021/10/10 04:07:30;;;;;;;9.95;6.65;;;;;;;3.64;91.47;97031.44;6372187;46;20127;-73
2021/10/10 04:12:33;;;;;;;7.80;5.57;;;;;;;3.51;91.51;97022.91;6372307;46;20097;-73
2021/10/10 04:17:36;;;;;;;12.20;5.85;;;;;;;3.47;91.63;97029.56;6372123;46;20097;-72
2021/10/10 04:22:40;;;;;;;9.90;5.75;;;;;;;3.28;91.60;97019.88;6372054;46;20096;-74
2021/10/10 04:27:43;;;;;;;10.15;5.63;;;;;;;3.14;91.93;97024.66;6372232;46;20097;-73
2021/10/10 04:32:45;;;;;;;10.20;6.38;;;;;;;3.11;92.50;97028.16;6372369;46;20132;-72
2021/10/10 04:37:48;;;;;;;7.50;6.05;;;;;;;3.20;91.75;97021.09;6371525;46;20106;-73
2021/10/10 04:42:50;;;;;;;11.77;5.70;;;;;;;3.08;91.60;97020.75;6371752;46;20102;-74
2021/10/10 04:47:53;;;;;;;7.38;4.75;;;;;;;3.17;91.66;97030.09;6371635;46;20097;-73
2021/10/10 04:52:55;;;;;;;5.35;4.57;;;;;;;3.09;91.90;97034.03;6371513;46;20105;-70
2021/10/10 04:57:57;;;;;;;6.10;5.03;;;;;;;2.88;92.28;97032.16;6371967;46;20535;-73
2021/10/10 05:02:59;;;;;;;6.72;4.97;;;;;;;2.74;92.24;97034.91;6373619;46;20097;-72
2021/10/10 05:08:03;;;;;;;5.82;4.72;;;;;;;2.72;92.64;97039.19;6373117;46;20087;-72
2021/10/10 05:13:06;;;;;;;7.70;5.20;;;;;;;2.69;92.22;97048.94;6378857;46;20540;-73
2021/10/10 05:18:09;;;;;;;7.68;5.40;;;;;;;2.74;92.12;97036.84;6377252;46;20097;-73
2021/10/10 05:23:14;;;;;;;7.60;5.53;;;;;;;2.72;92.15;97041.91;6373688;46;20102;-73
2021/10/10 05:28:17;;;;;;;9.25;6.05;;;;;;;2.76;92.17;97045.41;6373274;46;20088;-74
2021/10/10 05:33:20;;;;;;;7.22;5.40;;;;;;;2.75;91.95;97052.84;6373201;46;20092;-72
2021/10/10 05:38:22;;;;;;;7.72;5.55;;;;;;;2.73;91.95;97057.13;6379483;46;20829;-74
2021/10/10 05:43:25;;;;;;;7.78;5.38;;;;;;;2.78;91.69;97049.31;6383807;46;20552;-74
2021/10/10 05:48:27;;;;;;;6.80;5.22;;;;;;;2.79;91.86;97050.88;6372246;46;20092;-73
2021/10/10 05:53:29;;;;;;;7.22;6.03;;;;;;;2.89;91.96;97044.59;6372204;46;20105;-72
2021/10/10 05:58:38;;;;;;;6.60;5.25;;;;;;;2.99;91.59;97050.44;6371819;46;20083;-72
2021/10/10 06:03:40;;;;;;;9.32;6.03;;;;;;;3.14;91.33;97057.41;6372572;46;20110;-71
2021/10/10 06:08:43;;;;;;;10.85;5.93;;;;;;;3.27;91.45;97058.53;6373308;46;20139;-73
2021/10/10 06:13:46;;;;;;;12.07;6.32;;;;;;;3.49;91.52;97054.53;6359744;46;20088;-72
2021/10/10 06:18:48;;;;;;;9.77;6.05;;;;;;;3.68;91.46;97072.38;6374231;46;20716;-72
2021/10/10 06:23:53;;;;;;;11.00;7.28;;;;;;;3.86;92.60;97065.66;6372203;46;20101;-73
2021/10/10 06:28:55;;;;;;;12.05;6.82;;;;;;;4.11;93.14;97065.47;6371972;46;20088;-73
2021/10/10 06:33:57;;;;;;;12.70;7.63;;;;;;;4.37;93.82;97070.34;6359764;46;20101;-73
2021/10/10 06:39:00;;;;;;;6.82;5.75;;;;;;;4.59;95.01;97066.25;6388564;46;20084;-75
2021/10/10 06:44:03;;;;;;;8.43;6.28;;;;;;;4.85;93.55;97073.84;6395385;46;20217;-73
2021/10/10 06:49:05;;;;;;;12.10;7.35;;;;;;;4.91;95.33;97079.63;6374230;46;20097;-74
2021/10/10 06:54:07;;;;;;;13.65;7.25;;;;;;;4.93;94.97;97074.53;6372997;46;20119;-74
2021/10/10 06:59:10;;;;;;;15.38;7.93;;;;;;;5.17;94.64;97072.72;6372061;46;20092;-72
2021/10/10 07:04:13;;;;;;;12.75;8.52;;;;;;;5.42;93.27;97076.72;6372038;46;20542;-73
2021/10/10 07:09:15;;;;;;;11.90;7.45;;;;;;;5.50;92.02;97083.66;6372210;46;20110;-73
2021/10/10 07:14:17;;;;;;;11.32;7.13;;;;;;;5.72;91.81;97089.69;6372331;46;20123;-73
2021/10/10 07:19:25;;;;;;;16.30;7.18;;;;;;;5.85;91.35;97090.69;6371041;46;20097;-74
2021/10/10 07:29:49;;;;;;;13.32;7.05;;;;;;;6.13;89.19;97100.50;6370835;46;20101;-73
2021/10/10 07:34:51;;;;;;;12.43;7.55;;;;;;;6.34;88.47;97089.97;6358586;46;20102;-73
2021/10/10 07:39:54;;;;;;;12.00;7.68;;;;;;;6.54;85.87;97095.53;6370565;46;20096;-74
2021/10/10 07:45:05;;;;;;;13.90;7.55;;;;;;;6.71;86.09;97091.75;6371294;46;20633;-73
2021/10/10 07:50:09;;;;;;;14.77;7.40;;;;;;;6.82;85.22;97105.28;6370568;46;20110;-76
2021/10/10 07:55:11;;;;;;;14.80;7.00;;;;;;;6.94;82.45;97099.94;6370078;46;20302;-73
2021/10/10 08:00:14;;;;;;;10.50;7.25;;;;;;;7.24;82.13;97101.78;6370857;46;20200;-72
2021/10/10 08:05:17;;;;;;;13.02;8.20;;;;;;;7.14;81.38;97103.53;6371223;46;20619;-73
2021/10/10 08:10:21;;;;;;;12.25;7.82;;;;;;;7.54;81.20;97098.84;6370966;46;20097;-74
2021/10/10 08:15:24;;;;;;;13.25;7.63;;;;;;;7.58;79.49;97096.00;6371393;46;20114;-73
2021/10/10 08:20:26;;;;;;;9.60;7.30;;;;;;;7.98;79.05;97101.03;6370858;46;20181;-73
2021/10/10 08:25:30;;;;;;;11.02;7.75;;;;;;;8.20;80.20;97084.06;6371188;46;20084;-71
2021/10/10 08:30:33;;;;;;;10.25;7.05;;;;;;;8.34;77.47;97095.56;6371493;46;20531;-74
2021/10/10 08:35:35;;;;;;;15.95;7.97;;;;;;;8.49;77.22;97096.00;6373108;46;20092;-74
2021/10/10 08:40:39;;;;;;;13.85;8.02;;;;;;;8.80;77.46;97099.22;6373591;46;20539;-74
2021/10/10 08:45:42;;;;;;;18.20;8.07;;;;;;;9.05;77.21;97104.84;6372582;46;20087;-73
2021/10/10 08:50:44;;;;;;;12.43;7.63;;;;;;;9.25;74.89;97103.53;6380659;46;20123;-75
2021/10/10 08:55:47;;;;;;;15.00;7.88;;;;;;;9.35;74.21;97112.72;6373083;46;20092;-75
2021/10/10 09:01:02;;;;;;;11.55;7.97;;;;;;;10.41;71.03;97106.91;6373525;46;20097;-73
2021/10/10 09:06:04;;;;;;;14.40;8.45;;;;;;;10.58;70.73;97108.38;6375107;46;20629;-73
2021/10/10 09:11:07;;;;;;;14.82;7.88;;;;;;;11.23;67.15;97105.81;6373212;46;20110;-74
2021/10/10 09:16:11;;;;;;;15.25;8.10;;;;;;;11.51;66.73;97102.81;6372977;46;20088;-74
2021/10/10 09:21:19;;;;;;;13.75;7.82;;;;;;;11.88;63.31;97089.25;6377108;46;20084;-74
2021/10/10 09:26:22;;;;;;;12.95;7.65;;;;;;;11.49;64.06;97098.94;6372720;46;20171;-75
2021/10/10 09:31:27;;;;;;;12.75;7.32;;;;;;;11.86;61.14;97100.81;6372883;46;20097;-73
2021/10/10 09:36:30;;;;;;;16.33;7.78;;;;;;;12.25;63.97;97093.78;6370745;46;20083;-74
2021/10/10 09:41:44;;;;;;;13.55;7.68;;;;;;;13.06;60.65;97096.09;6372944;46;20092;-75
2021/10/10 09:46:48;;;;;;;11.13;7.80;;;;;;;11.51;63.09;97088.22;6371175;46;20097;-74
2021/10/10 09:51:53;;;;;;;13.30;7.80;;;;;;;12.08;60.82;97078.59;6365699;46;20097;-74
2021/10/10 09:57:06;;;;;;;7.50;6.25;;;;;;;12.63;61.62;97085.94;6364878;46;20303;-72
2021/10/10 10:02:09;;;;;;;11.88;7.10;;;;;;;11.99;61.80;97095.94;6360438;46;20084;-75
2021/10/10 10:07:19;;;;;;;11.65;7.07;;;;;;;13.18;60.48;97089.66;6377681;46;20230;-73
2021/10/10 10:12:24;;;;;;;10.35;7.72;;;;;;;13.48;58.83;97080.41;6369298;46;20092;-74
2021/10/10 10:17:27;;;;;;;12.20;7.60;;;;;;;13.07;60.13;97091.34;6367757;46;20120;-73
2021/10/10 10:22:34;;;;;;;14.60;7.60;;;;;;;12.74;59.32;97082.72;6369963;46;20092;-73
2021/10/10 10:27:36;;;;;;;14.75;7.45;;;;;;;13.92;58.38;97088.38;6366996;46;20101;-74
2021/10/10 10:32:39;;;;;;;11.63;7.78;;;;;;;14.01;59.04;97080.81;6372117;46;20096;-74
2021/10/10 10:37:41;;;;;;;11.55;7.40;;;;;;;14.46;54.28;97077.16;6370675;46;20087;-76
2021/10/10 10:42:50;;;;;;;13.00;8.05;;;;;;;14.52;58.24;97086.38;6373532;46;20096;-73
2021/10/10 10:47:59;;;;;;;14.85;7.90;;;;;;;15.18;52.89;97091.91;6379038;46;20088;-74
2021/10/10 10:53:03;;;;;;;;;;;;;;;14.87;55.82;97081.13;6374484;46;20177;-73
2021/10/10 10:58:05;;;;;;;12.70;7.30;;;;;;;14.91;55.00;97084.50;6370197;46;20430;-75
2021/10/10 11:03:11;;;;;;;13.23;7.88;;;;;;;15.13;55.84;97084.97;6366949;46;20115;-72
2021/10/10 11:08:14;;;;;;;8.82;7.25;;;;;;;15.30;53.59;97077.75;6351186;46;20093;-74
2021/10/10 11:13:23;;;;;;;11.00;6.78;;;;;;;15.06;53.37;97079.78;6387809;46;20087;-74
2021/10/10 11:18:27;;;;;;;10.98;7.63;;;;;;;15.30;53.03;97074.97;6397780;46;20651;-75
2021/10/10 11:23:31;;;;;;;11.90;7.13;;;;;;;14.91;52.58;97073.38;6370281;46;20110;-73
2021/10/10 11:28:46;;;;;;;11.75;6.93;;;;;;;14.77;52.48;97062.94;6370841;46;20087;-73
2021/10/10 11:33:56;;;;;;;10.05;6.80;;;;;;;15.23;53.02;97066.97;6369250;46;20088;-75
2021/10/10 11:38:59;;;;;;;9.63;6.97;;;;;;;15.20;53.00;97059.56;6366247;46;20092;-72
2021/10/10 11:44:05;;;;;;;14.68;8.77;;;;;;;15.93;51.04;97067.34;6365282;46;20092;-73
2021/10/10 11:49:37;;;;;;;9.32;6.57;;;;;;;15.65;52.28;97064.03;6369033;46;20096;-74
2021/10/10 11:54:41;;;;;;;16.52;8.15;;;;;;;15.22;53.95;97054.28;6368873;46;20097;-74
2021/10/10 11:59:48;;;;;;;11.52;7.03;;;;;;;15.34;52.25;97061.63;6369856;46;20096;-75
2021/10/10 12:05:09;;;;;;;9.00;6.38;;;;;;;15.37;53.85;97055.13;6371307;46;20097;-75
2021/10/10 12:10:20;;;;;;;9.35;7.05;;;;;;;14.84;51.29;97043.88;6366753;46;20122;-74
2021/10/10 12:15:23;;;;;;;13.15;7.22;;;;;;;15.72;49.20;97055.31;6367343;46;20127;-75
2021/10/10 12:20:30;;;;;;;10.15;6.45;;;;;;;16.49;48.52;97048.28;6364168;46;20096;-72
2021/10/10 12:25:42;;;;;;;8.98;6.20;;;;;;;15.83;46.80;97043.59;6371543;46;20106;-75
2021/10/10 12:31:00;;;;;;;7.70;5.75;;;;;;;15.24;51.98;97043.47;6370327;46;20126;-74
2021/10/10 12:36:16;;;;;;;9.17;5.57;;;;;;;15.78;51.37;97040.22;6369752;46;20545;-73
2021/10/10 12:41:24;;;;;;;9.20;6.40;;;;;;;15.42;47.78;97045.34;6366355;46;20115;-75
2021/10/10 12:46:27;;;;;;;9.77;6.45;;;;;;;16.32;47.29;97027.72;6374292;46;20226;-75
2021/10/10 12:51:30;;;;;;;12.27;5.88;;;;;;;16.55;46.00;97028.09;6356519;46;20087;-74
2021/10/10 12:56:33;;;;;;;10.38;6.55;;;;;;;16.34;47.24;97025.22;6367893;46;20110;-76
2021/10/10 13:01:36;;;;;;;10.55;6.10;;;;;;;16.58;47.29;97022.28;6368101;46;20616;-73
2021/10/10 13:06:49;;;;;;;8.43;5.70;;;;;;;16.28;46.38;97029.19;6365926;46;20093;-74
2021/10/10 13:11:53;;;;;;;11.18;6.47;;;;;;;16.57;44.47;97022.78;6371090;46;20513;-74
2021/10/10 13:16:56;;;;;;;12.50;6.32;;;;;;;16.18;44.62;97022.16;6356807;46;20093;-74
2021/10/10 13:21:58;;;;;;;11.57;7.07;;;;;;;16.47;47.38;97013.72;6370754;46;20100;-74
2021/10/10 13:27:00;;;;;;;12.38;6.45;;;;;;;17.16;46.10;97016.50;6371859;46;20180;-73
2021/10/10 13:32:03;;;;;;;12.30;7.78;;;;;;;16.06;45.76;97015.63;6372722;46;20092;-74
2021/10/10 13:37:05;;;;;;;10.00;6.53;;;;;;;15.64;45.60;97017.94;6372590;46;20188;-74
2021/10/10 13:42:08;;;;;;;9.18;5.75;;;;;;;15.68;47.71;97022.06;6372275;46;20110;-74
2021/10/10 13:47:10;;;;;;;9.13;5.57;;;;;;;16.71;45.59;97019.97;6370028;46;20088;-76
2021/10/10 13:52:12;;;;;;;13.18;7.82;;;;;;;16.95;44.93;96998.22;6371618;46;20092;-75
2021/10/10 13:57:15;;;;;;;10.63;8.15;;;;;;;16.54;44.01;97005.00;6370260;46;20189;-74
2021/10/10 14:02:17;;;;;;;9.57;5.93;;;;;;;17.66;41.95;96999.56;6371260;46;20101;-73
2021/10/10 14:07:20;;;;;;;6.85;5.70;;;;;;;17.14;44.59;96993.88;6370297;46;20198;-74
2021/10/10 14:12:22;;;;;;;7.05;5.45;;;;;;;16.88;42.80;96995.06;6371728;46;20189;-75
2021/10/10 14:17:25;;;;;;;10.98;5.95;;;;;;;16.25;45.18;97005.81;6369456;46;20088;-74
2021/10/10 14:22:27;;;;;;;9.52;5.63;;;;;;;16.12;46.96;96996.22;6371388;46;20101;-75
2021/10/10 14:27:29;;;;;;;8.77;5.60;;;;;;;15.51;49.13;97012.63;6373149;46;20101;-74
2021/10/10 14:32:31;;;;;;;8.82;6.38;;;;;;;15.18;48.14;97000.81;6372376;46;20110;-74
2021/10/10 14:37:35;;;;;;;8.93;4.72;;;;;;;14.81;49.67;97002.34;6371663;46;20092;-73
2021/10/10 14:48:10;;;;;;;11.48;5.63;;;;;;;14.46;49.62;97009.63;6358620;46;20088;-74
2021/10/10 14:53:19;;;;;;;7.18;5.18;;;;;;;14.10;51.87;96991.84;6372031;46;20088;-73
2021/10/10 14:58:23;;;;;;;7.55;4.97;;;;;;;13.91;49.50;96990.38;6375262;46;20106;-70
2021/10/10 15:03:26;;;;;;;9.25;4.90;;;;;;;13.45;50.29;96991.72;6362486;46;20131;-73
2021/10/10 15:08:29;;;;;;;7.75;4.43;;;;;;;13.31;50.18;96990.34;6372100;46;20620;-73
2021/10/10 15:13:33;;;;;;;6.30;4.60;;;;;;;13.00;50.77;96995.25;6369661;46;20092;-73
2021/10/10 15:18:36;;;;;;;8.02;4.78;;;;;;;12.85;51.73;96995.09;6370128;46;20110;-74
2021/10/10 15:23:38;;;;;;;7.55;4.28;;;;;;;12.74;51.83;96994.75;6372001;46;20097;-74
2021/10/10 15:28:42;;;;;;;6.60;4.30;;;;;;;12.53;53.57;97003.97;6370862;46;20092;-73
2021/10/10 15:33:44;;;;;;;8.88;6.13;;;;;;;12.49;53.96;97013.66;6372512;46;20097;-74
2021/10/10 15:38:47;;;;;;;7.32;5.82;;;;;;;12.38;55.87;97022.41;6371384;46;20544;-74
2021/10/10 15:43:50;;;;;;;8.68;6.65;;;;;;;12.16;58.37;97019.72;6372506;46;20105;-74
2021/10/10 15:48:56;;;;;;;9.32;4.40;;;;;;;12.01;57.05;97024.25;6373024;46;20088;-72
2021/10/10 15:54:00;;;;;;;5.20;4.25;;;;;;;11.71;57.32;97019.50;6371515;46;20105;-74
2021/10/10 15:59:03;;;;;;;6.05;4.20;;;;;;;11.69;59.60;97021.16;6394104;46;20083;-74
2021/10/10 16:04:05;;;;;;;8.18;4.72;;;;;;;11.26;58.46;96999.78;6347612;46;20093;-74
2021/10/10 16:09:07;;;;;;;12.18;4.70;;;;;;;11.26;62.08;97022.66;6326720;46;20541;-75
2021/10/10 16:14:12;;;;;;;7.35;4.47;;;;;;;10.87;63.30;97030.78;6367328;46;20504;-75
2021/10/10 16:19:14;;;;;;;6.35;4.07;;;;;;;10.59;63.61;97025.00;6370853;46;20620;-75
2021/10/10 16:24:16;;;;;;;6.25;4.20;;;;;;;10.33;65.28;97031.00;6358402;46;20097;-75
2021/10/10 16:29:19;;;;;;;6.38;4.18;;;;;;;10.20;66.20;97028.25;6370154;46;20088;-76
2021/10/10 16:39:49;;;;;;;7.35;4.28;;;;;;;9.66;74.26;97038.53;6370536;46;20084;-75
2021/10/10 16:44:52;;;;;;;7.47;4.43;;;;;;;9.52;75.24;97028.69;6367143;46;20088;-75
2021/10/10 16:49:54;;;;;;;5.43;3.17;;;;;;;9.31;77.47;97046.63;6368815;46;20111;-75
2021/10/10 16:54:57;;;;;;;7.00;4.38;;;;;;;9.07;78.75;97042.56;6369466;46;20122;-76
2021/10/10 17:00:02;;;;;;;6.53;3.53;;;;;;;8.68;79.22;97001.50;6368686;46;20540;-76
2021/10/10 17:05:05;;;;;;;4.68;3.70;;;;;;;8.88;78.45;97045.44;6310849;47;20094;-75
2021/10/10 17:10:08;;;;;;;7.25;4.30;;;;;;;8.72;78.76;97056.47;6309686;46;20657;-75
2021/10/10 17:15:10;;;;;;;5.38;3.65;;;;;;;8.61;79.14;97060.31;6310389;47;20144;-75
2021/10/10 17:20:13;;;;;;;4.55;3.95;;;;;;;8.31;81.02;97068.88;6309821;46;20116;-76
2021/10/10 17:25:15;;;;;;;6.53;3.83;;;;;;;8.13;82.54;97071.25;6310453;47;20111;-75
2021/10/10 17:30:18;;;;;;;5.57;3.85;;;;;;;8.04;83.25;97060.03;6310378;46;20622;-75
2021/10/10 17:35:21;;;;;;;6.57;4.00;;;;;;;7.93;84.35;97070.53;6310329;47;20108;-75
2021/10/10 17:40:23;;;;;;;7.07;3.97;;;;;;;7.78;85.12;97069.25;6310667;46;20657;-75
2021/10/10 17:45:26;;;;;;;5.68;4.05;;;;;;;7.74;84.45;97071.31;6310405;47;20627;-75
2021/10/10 17:50:28;;;;;;;6.15;4.15;;;;;;;7.57;85.14;97070.50;6310365;46;20094;-75
2021/10/10 17:55:31;;;;;;;7.30;4.78;;;;;;;7.56;85.03;97076.41;6310139;47;20098;-75
2021/10/10 18:00:53;;;;;;;7.53;5.43;;;;;;;7.57;84.78;97075.22;6311268;46;20104;-75
2021/10/10 18:16:22;;;;;;;7.22;4.85;;;;;;;7.16;86.59;97089.38;6309251;47;20577;-75
2021/10/10 18:21:24;;;;;;;6.32;4.70;;;;;;;7.05;86.96;97094.28;6309992;46;20534;-75
2021/10/10 18:26:27;;;;;;;11.88;4.57;;;;;;;7.08;86.70;97088.72;6309741;47;20674;-76
2021/10/10 18:31:30;;;;;;;6.78;4.50;;;;;;;7.01;86.97;97088.84;6310121;46;20112;-75
2021/10/10 18:36:32;;;;;;;7.25;4.78;;;;;;;6.83;87.22;97098.63;6310029;47;20183;-76
2021/10/10 18:41:35;;;;;;;7.38;5.13;;;;;;;6.83;87.16;97107.59;6310347;46;20098;-75
2021/10/10 18:46:37;;;;;;;6.20;4.43;;;;;;;6.69;87.46;97107.09;6310099;47;20099;-75
2021/10/10 18:51:39;;;;;;;5.38;4.70;;;;;;;6.66;87.97;97107.91;6309977;46;20656;-75
2021/10/10 18:56:43;;;;;;;6.05;4.47;;;;;;;6.44;89.18;97104.75;6309270;47;20631;-75
2021/10/10 19:01:45;;;;;;;11.75;4.90;;;;;;;6.32;89.59;97117.06;6309637;46;20112;-75
2021/10/10 19:06:48;;;;;;;7.22;5.38;;;;;;;6.24;90.42;97112.09;6308390;47;20200;-75
2021/10/10 19:11:52;;;;;;;9.68;6.38;;;;;;;6.23;90.50;97121.50;6308822;46;20102;-76
2021/10/10 19:16:54;;;;;;;10.98;5.65;;;;;;;6.15;89.78;97120.81;6308864;47;20101;-75
2021/10/10 19:22:00;;;;;;;11.63;5.85;;;;;;;6.11;89.68;97097.38;6328831;46;20114;-75
2021/10/10 19:27:04;;;;;;;7.05;5.30;;;;;;;6.27;89.77;97146.94;6369142;46;20115;-74
2021/10/10 19:32:07;;;;;;;9.00;5.88;;;;;;;6.16;89.44;97133.38;6369875;46;20092;-76
2021/10/10 19:37:09;;;;;;;7.75;5.63;;;;;;;6.08;89.82;97133.88;6368474;46;20185;-76
2021/10/10 19:42:12;;;;;;;7.70;5.13;;;;;;;6.02;90.29;97132.78;6367241;46;20101;-75
2021/10/10 19:47:14;;;;;;;7.15;4.90;;;;;;;6.02;89.93;97136.31;6372782;46;20104;-75
2021/10/10 19:52:17;;;;;;;9.80;5.78;;;;;;;5.96;90.42;97137.19;6369889;46;20092;-75
2021/10/10 19:57:19;;;;;;;8.80;5.75;;;;;;;5.90;91.25;97136.88;6364678;46;20091;-75
2021/10/10 20:02:21;;;;;;;9.30;6.70;;;;;;;5.88;91.78;97133.00;6367292;46;20206;-76
2021/10/10 20:07:24;;;;;;;9.95;6.47;;;;;;;5.86;93.09;97136.13;6360219;46;20100;-75
2021/10/10 20:12:26;;;;;;;13.70;6.93;;;;;;;5.81;92.16;97126.34;6363367;46;20096;-76
2021/10/10 20:17:29;;;;;;;9.10;6.00;;;;;;;5.90;91.84;97138.84;6353482;46;20615;-75
2021/10/10 20:22:31;;;;;;;9.30;5.72;;;;;;;5.93;90.72;97129.75;6367414;46;20096;-75
2021/10/10 20:27:34;;;;;;;8.68;5.45;;;;;;;5.94;89.73;97126.63;6351766;46;20093;-76
2021/10/10 20:32:37;;;;;;;9.40;5.57;;;;;;;5.68;90.41;97141.81;6371501;46;20620;-75
2021/10/10 20:37:39;;;;;;;7.63;5.72;;;;;;;5.51;91.33;97133.78;6370531;46;20109;-76
2021/10/10 20:42:41;;;;;;;11.77;5.78;;;;;;;5.52;91.38;97140.81;6365805;46;20181;-76
2021/10/10 20:47:44;;;;;;;10.95;6.72;;;;;;;5.48;91.29;97140.88;6369924;46;20105;-76
2021/10/10 20:52:46;;;;;;;11.32;6.72;;;;;;;5.33;92.00;97141.44;6370429;46;20092;-76
2021/10/10 20:57:48;;;;;;;9.27;6.28;;;;;;;5.40;91.84;97149.59;6369422;46;20092;-76
2021/10/10 21:02:51;;;;;;;9.55;5.97;;;;;;;5.34;91.79;97149.22;6370739;46;20088;-76
2021/10/10 21:07:53;;;;;;;7.70;5.75;;;;;;;5.35;92.13;97147.28;6356929;46;20097;-75
2021/10/10 21:12:56;;;;;;;7.88;5.82;;;;;;;5.28;91.42;97139.91;6371910;46;20500;-75
2021/10/10 21:17:58;;;;;;;7.10;5.53;;;;;;;5.13;91.54;97135.00;6372080;46;20118;-75
2021/10/10 21:23:00;;;;;;;9.38;6.28;;;;;;;5.07;92.03;97129.16;6372183;46;20563;-76
2021/10/10 21:28:10;;;;;;;8.95;6.20;;;;;;;5.18;91.73;97132.56;6371455;46;20096;-75
2021/10/10 21:38:33;;;;;;;7.93;6.07;;;;;;;5.01;91.84;97122.56;6372673;46;19974;-76
2021/10/10 21:43:35;;;;;;;7.82;5.55;;;;;;;4.94;91.96;97123.44;6371441;46;20634;-76
2021/10/10 21:48:39;;;;;;;9.18;6.07;;;;;;;4.87;92.62;97114.50;6371837;46;20088;-76
2021/10/10 21:53:42;;;;;;;6.90;4.95;;;;;;;4.92;92.58;97108.59;6359101;46;20083;-76
2021/10/10 21:58:44;;;;;;;7.10;5.13;;;;;;;4.83;91.79;97114.53;6372020;46;20098;-75
2021/10/10 22:03:47;;;;;;;7.88;5.57;;;;;;;4.75;91.60;97113.03;6371941;46;20540;-76
2021/10/10 22:08:51;;;;;;;7.35;5.45;;;;;;;4.65;92.45;97102.19;6371147;46;20634;-75
2021/10/10 22:13:53;;;;;;;9.45;5.57;;;;;;;4.59;92.57;97096.34;6371678;46;20222;-76
2021/10/10 22:18:56;;;;;;;5.97;5.00;;;;;;;4.56;92.54;97099.91;6371417;46;20088;-76
2021/10/10 22:24:05;;;;;;;7.55;5.55;;;;;;;4.54;92.37;97096.03;6359237;46;20083;-76
2021/10/10 22:34:28;;;;;;;5.88;4.78;;;;;;;4.36;92.54;97083.25;6372035;46;20105;-76
2021/10/10 22:39:31;;;;;;;10.27;6.68;;;;;;;4.36;92.84;97083.25;6371717;46;20087;-76
2021/10/10 22:44:33;;;;;;;9.25;6.07;;;;;;;4.28;92.41;97079.03;6371558;46;20123;-77
2021/10/10 22:49:37;;;;;;;5.88;4.88;;;;;;;4.36;92.32;97079.75;6371374;46;20531;-76
2021/10/10 22:54:39;;;;;;;8.65;5.78;;;;;;;4.24;92.42;97080.22;6371277;46;20655;-76
2021/10/10 22:59:41;;;;;;;10.63;6.28;;;;;;;4.18;92.28;97071.66;6371315;46;20180;-76
2021/10/10 23:04:44;;;;;;;9.23;6.13;;;;;;;4.14;92.27;97078.34;6358407;46;20088;-75
2021/10/10 23:09:48;;;;;;;7.45;5.78;;;;;;;4.14;92.13;97081.06;6372000;46;20110;-76
2021/10/10 23:14:50;;;;;;;9.85;6.10;;;;;;;4.10;92.25;97080.31;6371486;46;20092;-76
2021/10/10 23:19:52;;;;;;;10.52;6.50;;;;;;;4.16;92.41;97073.25;6371190;46;20198;-76
2021/10/10 23:24:55;;;;;;;7.65;5.65;;;;;;;3.98;92.08;97067.13;6371162;46;20101;-76
2021/10/10 23:29:57;;;;;;;6.80;5.25;;;;;;;4.11;92.37;97069.00;6371452;46;20110;-76
2021/10/10 23:35:01;;;;;;;6.82;5.65;;;;;;;4.00;92.26;97059.31;6371195;46;20141;-75
2021/10/10 23:40:04;;;;;;;5.78;4.85;;;;;;;3.83;92.22;97050.03;6370981;46;20673;-76
2021/10/10 23:45:07;;;;;;;7.78;5.13;;;;;;;3.81;92.36;97051.63;6371119;46;20109;-76
2021/10/10 23:50:09;;;;;;;14.27;6.07;;;;;;;3.78;92.74;97058.66;6357736;46;20506;-77
2021/10/10 23:55:11;;;;;;;5.68;4.70;;;;;;;3.99;91.98;97055.00;6371507;46;20092;-76
